バミューダ の空港の天気 - METARとTAF

バミューダ国際空港 ( TXKF / BDA ) - バミューダ諸島 Ferry Reach
飛行場実況気象(Metar)
観測時間09/27 19:55 ADT (09/27 22:55 UTC)
風向・風速南南東 5m/s
視程10km以上
天気現象
少しの雲 雲底高度 210m
気温26℃
湿度94%
気圧1021hPa
METARTXKF 272255Z 15010KT 9999 FEW007 26/25 Q1021
過去の天気等 Google飛行場航空写真 Wunderground天気予報

過去48時間のMETAR

飛行場予報(TAF)
発表時間: 9/27 20:34 ADT (9/27 23:34 UTC)
予報対象時間: 27日21時 ADT ~ 28日21時 ADT
風向・風速南南東 5m/s
視程10km以上
少しの雲 雲底高度 300m
28日1時 ADT ~ 28日10時 ADT に 確率 30% で一時的に
視程6000m
天気現象弱いしゅう雨
全天の4割程度の雲 雲底高度 240m
全天の8割程度の雲 雲底高度 370m
TAF TXKF 272334Z 2800/2824 15009KT 9999 FEW010
PROB30 TEMPO 2804/2813 6000 -SHRA SCT008 BKN012